Time;durP1;ratioP1;P1;durP2;ratioP2;P2;SDS_P1;SDS_P2;PMS_P1;PMS_P2;Temp;Humidity;BMP_temperature;BMP_pressure;BME280_temperature;BME280_humidity;BME280_pressure;Samples;Min_cycle;Max_cycle;Signal;HPM_P1;HPM_P2
2022/11/27 00:02:30;;;;;;;9.77;2.65;;;9.30;99.90;;;;;;10468499;28;20116;-64
2022/11/27 00:07:31;;;;;;;6.72;2.55;;;9.30;99.90;;;;;;10465560;28;20028;-62
2022/11/27 00:12:32;;;;;;;8.27;3.25;;;9.30;99.90;;;;;;10470235;28;20074;-63
2022/11/27 00:17:32;;;;;;;6.47;2.85;;;9.30;99.90;;;;;;10476675;22;20049;-65
2022/11/27 00:22:33;;;;;;;7.00;3.15;;;9.30;99.90;;;;;;10485743;28;20097;-67
2022/11/27 00:27:34;;;;;;;6.10;2.88;;;9.20;99.90;;;;;;10506911;22;20114;-62
2022/11/27 00:32:34;;;;;;;9.13;3.00;;;9.20;99.90;;;;;;10469578;28;20025;-67
2022/11/27 00:37:35;;;;;;;9.55;3.10;;;9.20;99.90;;;;;;10462287;28;20044;-63
2022/11/27 00:42:36;;;;;;;8.48;2.83;;;9.40;99.90;;;;;;10462139;28;20049;-63
2022/11/27 00:47:37;;;;;;;9.77;3.58;;;9.20;99.90;;;;;;10468994;28;20043;-64
2022/11/27 00:52:38;;;;;;;8.27;3.28;;;9.20;99.90;;;;;;10453512;28;20033;-64
2022/11/27 00:57:38;;;;;;;9.10;2.90;;;9.20;99.90;;;;;;10470231;28;20500;-66
2022/11/27 01:02:39;;;;;;;9.80;3.22;;;9.10;99.90;;;;;;10465221;28;20490;-63
2022/11/27 01:07:40;;;;;;;10.57;3.13;;;9.10;99.90;;;;;;10449695;28;20029;-64
2022/11/27 01:12:41;;;;;;;12.00;3.08;;;9.20;99.90;;;;;;10468321;28;20028;-63
2022/11/27 01:17:41;;;;;;;5.65;2.72;;;9.10;99.90;;;;;;10466417;28;20611;-63
2022/11/27 01:22:42;;;;;;;5.82;2.75;;;9.10;99.90;;;;;;10456617;28;20098;-62
2022/11/27 01:27:43;;;;;;;8.55;3.05;;;9.10;99.90;;;;;;10465009;28;20673;-62
2022/11/27 01:32:44;;;;;;;12.48;3.55;;;9.10;99.90;;;;;;10468425;28;20025;-63
2022/11/27 01:37:45;;;;;;;6.55;2.80;;;9.10;99.90;;;;;;10460624;28;20033;-63
2022/11/27 01:42:45;;;;;;;8.70;3.03;;;9.10;99.90;;;;;;10462060;28;20054;-62
2022/11/27 01:47:54;;;;;;;8.05;3.33;;;9.00;99.90;;;;;;10464523;28;20070;-61
2022/11/27 01:53:03;;;;;;;9.23;3.27;;;9.00;99.90;;;;;;10450613;28;20020;-62
2022/11/27 01:58:08;;;;;;;7.10;3.15;;;9.00;99.90;;;;;;10469090;28;20501;-62
2022/11/27 02:03:09;;;;;;;8.23;3.60;;;9.00;99.90;;;;;;10462234;28;20029;-62
2022/11/27 02:08:12;;;;;;;9.02;3.60;;;9.00;99.90;;;;;;10468103;28;20029;-61
2022/11/27 02:13:26;;;;;;;7.45;3.28;;;9.00;99.90;;;;;;10465710;28;20039;-62
2022/11/27 02:18:44;;;;;;;6.43;3.30;;;9.00;99.90;;;;;;10464421;28;20028;-66
2022/11/27 02:24:19;;;;;;;5.72;2.90;;;9.00;99.90;;;;;;10452249;28;20515;-62
2022/11/27 02:29:23;;;;;;;7.35;3.10;;;9.00;99.90;;;;;;10457376;28;20052;-68
2022/11/27 02:34:39;;;;;;;7.78;3.47;;;8.90;99.90;;;;;;10466270;28;20024;-66
2022/11/27 02:40:03;;;;;;;8.95;3.30;;;8.90;99.90;;;;;;10458686;28;20457;-68
2022/11/27 02:45:16;;;;;;;9.57;3.25;;;8.90;99.90;;;;;;10496251;22;20071;-67
2022/11/27 02:50:20;;;;;;;8.10;3.88;;;9.00;99.90;;;;;;10448736;28;20044;-63
2022/11/27 02:55:25;;;;;;;7.78;3.30;;;8.90;99.90;;;;;;10447048;28;20559;-68
2022/11/27 03:00:25;;;;;;;7.95;3.53;;;8.90;99.90;;;;;;10447832;28;20071;-67
2022/11/27 03:05:31;;;;;;;7.10;3.35;;;8.90;99.90;;;;;;10447764;28;20456;-69
2022/11/27 03:10:44;;;;;;;6.63;3.25;;;8.90;99.90;;;;;;10447200;28;20485;-66
2022/11/27 03:16:16;;;;;;;7.60;3.78;;;8.90;99.90;;;;;;10446372;28;20079;-63
2022/11/27 03:21:37;;;;;;;8.07;3.10;;;8.80;99.90;;;;;;10446440;28;20021;-65
2022/11/27 03:26:39;;;;;;;9.45;3.65;;;8.80;99.90;;;;;;10446886;28;20060;-68
2022/11/27 03:31:40;;;;;;;8.30;3.58;;;8.80;99.90;;;;;;10446918;28;20028;-67
2022/11/27 03:36:41;;;;;;;9.70;3.30;;;8.80;99.90;;;;;;10446673;28;20407;-65
2022/11/27 03:41:48;;;;;;;8.43;3.30;;;8.80;99.90;;;;;;10446606;28;20508;-63
2022/11/27 03:47:04;;;;;;;8.85;3.75;;;8.80;99.90;;;;;;10444039;28;20072;-61
2022/11/27 03:52:15;;;;;;;7.60;3.38;;;8.80;99.90;;;;;;10442548;28;20044;-62
2022/11/27 03:57:32;;;;;;;7.38;2.65;;;8.80;99.90;;;;;;10444103;28;20053;-66
2022/11/27 04:02:51;;;;;;;8.38;3.30;;;8.80;99.90;;;;;;10445408;28;20032;-63
2022/11/27 04:07:52;;;;;;;5.68;3.17;;;8.80;99.90;;;;;;10445338;28;20062;-62
2022/11/27 04:12:52;;;;;;;8.48;3.10;;;8.80;99.90;;;;;;10445030;28;20124;-62
2022/11/27 04:17:53;;;;;;;9.48;2.80;;;8.80;99.90;;;;;;10445005;28;20475;-63
2022/11/27 04:22:54;;;;;;;6.43;3.17;;;8.80;99.90;;;;;;10445125;28;20375;-62
2022/11/27 04:27:55;;;;;;;5.78;3.03;;;8.80;99.90;;;;;;10443909;28;20029;-66
2022/11/27 04:32:56;;;;;;;7.20;3.00;;;8.80;99.90;;;;;;10444659;28;20361;-64
2022/11/27 04:37:58;;;;;;;10.35;2.80;;;8.80;99.90;;;;;;10444237;28;20053;-62
2022/11/27 04:42:58;;;;;;;8.80;2.92;;;8.80;99.90;;;;;;10444229;28;20703;-62
2022/11/27 04:47:59;;;;;;;7.13;2.85;;;8.80;99.90;;;;;;10443573;28;20057;-62
2022/11/27 04:53:00;;;;;;;7.43;2.80;;;8.80;99.90;;;;;;10443314;28;20025;-62
2022/11/27 04:58:00;;;;;;;6.28;2.38;;;8.80;99.90;;;;;;10443916;28;20029;-63
2022/11/27 05:03:01;;;;;;;7.80;2.80;;;8.70;99.90;;;;;;10442477;28;20029;-63
2022/11/27 05:08:02;;;;;;;5.43;2.08;;;8.80;99.90;;;;;;10443494;28;20040;-62
2022/11/27 05:13:03;;;;;;;8.00;2.88;;;8.70;99.90;;;;;;10442422;28;20397;-65
2022/11/27 05:18:03;;;;;;;7.63;2.50;;;8.80;99.90;;;;;;10443396;28;20032;-67
2022/11/27 05:23:04;;;;;;;6.60;2.65;;;8.70;99.90;;;;;;10442888;28;20401;-67
2022/11/27 05:28:05;;;;;;;11.45;3.15;;;9.00;99.90;;;;;;10442226;28;20029;-68
2022/11/27 05:33:06;;;;;;;6.10;2.50;;;8.90;99.90;;;;;;10481752;22;20048;-67
2022/11/27 05:38:07;;;;;;;7.18;2.72;;;8.70;99.90;;;;;;10553704;22;20049;-63
2022/11/27 05:43:07;;;;;;;6.60;2.40;;;8.70;99.90;;;;;;10474362;22;20056;-67
2022/11/27 05:48:08;;;;;;;6.20;2.70;;;8.70;99.90;;;;;;10442553;28;20035;-67
2022/11/27 05:53:09;;;;;;;7.88;2.45;;;8.70;99.90;;;;;;10441779;28;20021;-67
2022/11/27 05:58:10;;;;;;;6.45;2.53;;;8.70;99.90;;;;;;10442324;28;20505;-64
2022/11/27 06:03:10;;;;;;;6.53;3.10;;;8.70;99.90;;;;;;10441879;28;20044;-68
2022/11/27 06:08:11;;;;;;;6.55;2.47;;;8.70;99.90;;;;;;10441903;28;20044;-64
2022/11/27 06:13:12;;;;;;;3.78;2.30;;;8.70;99.90;;;;;;10442160;28;20112;-67
2022/11/27 06:18:13;;;;;;;6.72;2.30;;;8.70;99.90;;;;;;10448595;28;20501;-65
2022/11/27 06:23:14;;;;;;;5.25;2.80;;;9.30;99.90;;;;;;10431473;28;20140;-63
2022/11/27 06:28:14;;;;;;;5.72;2.67;;;8.70;99.90;;;;;;10449336;28;20021;-67
2022/11/27 06:33:15;;;;;;;8.30;2.33;;;8.70;99.90;;;;;;10449387;28;20029;-63
2022/11/27 06:38:16;;;;;;;5.50;2.25;;;8.80;99.90;;;;;;10449850;28;20025;-63
2022/11/27 06:43:16;;;;;;;5.95;2.72;;;8.70;99.90;;;;;;10448658;28;20045;-63
2022/11/27 06:48:17;;;;;;;5.78;2.50;;;8.70;99.90;;;;;;10447485;28;20036;-67
2022/11/27 06:53:18;;;;;;;7.22;2.80;;;8.70;99.90;;;;;;10448648;28;20044;-67
2022/11/27 06:58:19;;;;;;;9.35;3.70;;;8.70;99.90;;;;;;10448113;28;20044;-62
2022/11/27 07:03:20;;;;;;;6.82;2.60;;;9.00;99.90;;;;;;10438430;28;20037;-63
2022/11/27 07:08:21;;;;;;;5.25;2.10;;;8.70;99.90;;;;;;10426283;28;20025;-62
2022/11/27 07:13:21;;;;;;;5.78;2.55;;;8.70;99.90;;;;;;10444741;28;20029;-66
2022/11/27 07:18:22;;;;;;;6.13;2.40;;;8.70;99.90;;;;;;10442969;28;20382;-66
2022/11/27 07:23:23;;;;;;;5.57;2.75;;;8.70;99.90;;;;;;10442774;28;20556;-66
2022/11/27 07:28:24;;;;;;;6.28;2.55;;;8.60;99.90;;;;;;10443060;28;20112;-62
2022/11/27 07:33:25;;;;;;;7.55;3.05;;;9.00;99.90;;;;;;10441203;28;20040;-62
2022/11/27 07:38:26;;;;;;;7.47;3.15;;;8.70;99.90;;;;;;10444858;28;20410;-62
2022/11/27 07:43:27;;;;;;;8.82;3.15;;;8.60;99.90;;;;;;10441131;28;20052;-62
2022/11/27 07:48:28;;;;;;;6.43;2.63;;;8.70;99.90;;;;;;10440287;28;20185;-62
2022/11/27 07:53:29;;;;;;;10.65;4.03;;;8.70;99.90;;;;;;10440053;28;20037;-60
2022/11/27 07:58:29;;;;;;;6.28;3.03;;;8.70;99.90;;;;;;10445569;28;20033;-62
2022/11/27 08:03:30;;;;;;;7.10;2.42;;;8.70;99.90;;;;;;10361385;28;20420;-62
2022/11/27 08:08:31;;;;;;;5.57;2.67;;;8.70;99.90;;;;;;10348770;28;20021;-61
2022/11/27 08:13:32;;;;;;;6.88;2.80;;;8.70;99.90;;;;;;10349636;28;20096;-66
2022/11/27 08:18:33;;;;;;;6.35;2.70;;;8.70;99.90;;;;;;10361802;28;20040;-61
2022/11/27 08:23:34;;;;;;;4.63;2.30;;;8.70;99.90;;;;;;10359717;28;20236;-77
2022/11/27 08:28:35;;;;;;;6.40;2.83;;;8.70;99.90;;;;;;10359858;28;20206;-61
2022/11/27 08:33:36;;;;;;;7.53;3.08;;;8.70;99.90;;;;;;10359409;28;20036;-60
2022/11/27 08:38:37;;;;;;;5.88;2.88;;;8.70;99.90;;;;;;10363373;28;20540;-61
2022/11/27 08:43:37;;;;;;;5.20;2.85;;;8.70;99.90;;;;;;10361677;28;20045;-62
2022/11/27 08:48:40;;;;;;;7.13;3.22;;;8.70;99.90;;;;;;10359746;28;20583;-67
2022/11/27 08:53:44;;;;;;;6.30;2.72;;;8.80;99.90;;;;;;10359206;28;20037;-61
2022/11/27 08:58:45;;;;;;;6.55;3.38;;;8.80;99.90;;;;;;10359096;28;20032;-62
2022/11/27 09:03:47;;;;;;;7.47;3.05;;;8.80;99.90;;;;;;10354101;28;20051;-60
2022/11/27 09:08:48;;;;;;;5.90;2.35;;;8.80;99.90;;;;;;10361598;28;20033;-66
2022/11/27 09:13:49;;;;;;;5.90;2.70;;;8.80;99.90;;;;;;10363364;28;20060;-61
2022/11/27 09:18:53;;;;;;;6.30;2.75;;;8.80;99.90;;;;;;10370188;22;20108;-62
2022/11/27 09:23:54;;;;;;;6.10;2.95;;;8.80;99.90;;;;;;10341659;28;20325;-61
2022/11/27 09:28:57;;;;;;;6.40;2.58;;;8.80;99.90;;;;;;10309273;28;20131;-62
2022/11/27 09:33:58;;;;;;;6.63;2.88;;;8.80;99.90;;;;;;10342225;28;20021;-66
2022/11/27 09:38:59;;;;;;;8.05;2.92;;;8.80;99.90;;;;;;10342668;28;20452;-61
2022/11/27 09:44:05;;;;;;;6.82;3.45;;;8.80;99.90;;;;;;10330013;28;20477;-62
2022/11/27 09:49:21;;;;;;;6.90;2.90;;;8.80;99.90;;;;;;10334330;28;20612;-61
2022/11/27 09:54:43;;;;;;;7.38;3.33;;;8.80;99.90;;;;;;10333346;28;20216;-61
2022/11/27 09:59:52;;;;;;;6.97;2.55;;;8.80;99.90;;;;;;10325018;28;20087;-66
2022/11/27 10:04:54;;;;;;;9.75;3.40;;;8.80;99.90;;;;;;10336529;28;20368;-63
2022/11/27 10:10:16;;;;;;;10.40;2.90;;;9.10;99.90;;;;;;10349245;28;20032;-67
2022/11/27 10:15:35;;;;;;;9.20;2.92;;;8.80;99.90;;;;;;10320582;28;20142;-63
2022/11/27 10:20:49;;;;;;;7.05;3.00;;;8.40;99.90;;;;;;10331052;28;20200;-62
2022/11/27 10:25:55;;;;;;;8.88;3.42;;;8.80;99.90;;;;;;10352239;28;20156;-62
2022/11/27 10:31:20;;;;;;;7.22;3.00;;;9.10;99.90;;;;;;10343768;28;20120;-62
2022/11/27 10:36:29;;;;;;;8.35;3.60;;;8.80;99.90;;;;;;10335349;28;20512;-65
2022/11/27 10:41:36;;;;;;;9.88;3.25;;;8.80;99.90;;;;;;10346550;28;20029;-61
2022/11/27 10:46:38;;;;;;;7.05;3.28;;;8.20;99.90;;;;;;10346432;28;20049;-60
2022/11/27 10:51:40;;;;;;;8.00;3.17;;;8.40;99.90;;;;;;10335179;28;20580;-61
2022/11/27 10:56:52;;;;;;;7.45;3.58;;;8.90;99.90;;;;;;10325678;28;20286;-61
2022/11/27 11:01:52;;;;;;;7.43;2.97;;;9.10;99.90;;;;;;10314410;28;20644;-62
2022/11/27 11:06:53;;;;;;;8.93;3.55;;;8.80;99.90;;;;;;10333917;28;20038;-61
2022/11/27 11:12:14;;;;;;;9.65;3.53;;;8.80;99.90;;;;;;10335625;28;20033;-61
2022/11/27 11:17:16;;;;;;;7.28;3.05;;;9.00;99.90;;;;;;10343702;28;20420;-61
2022/11/27 11:22:18;;;;;;;9.82;3.60;;;8.90;99.90;;;;;;10320386;28;20045;-63
2022/11/27 11:27:26;;;;;;;9.10;3.80;;;9.00;99.90;;;;;;10321477;28;20592;-61
2022/11/27 11:32:39;;;;;;;8.13;4.07;;;9.00;99.90;;;;;;10340439;28;20112;-62
2022/11/27 11:37:44;;;;;;;7.32;3.25;;;9.00;99.90;;;;;;10340405;28;20071;-61
2022/11/27 11:42:52;;;;;;;7.80;3.50;;;9.00;99.90;;;;;;10372323;22;20016;-60
2022/11/27 11:47:58;;;;;;;8.63;3.58;;;9.10;99.90;;;;;;10346553;28;20040;-62
2022/11/27 11:53:10;;;;;;;10.90;4.45;;;9.00;99.90;;;;;;10321888;28;20130;-61
2022/11/27 11:58:23;;;;;;;9.50;3.53;;;9.00;99.90;;;;;;10330054;28;20037;-61
2022/11/27 12:03:42;;;;;;;7.05;3.25;;;9.00;99.90;;;;;;10336963;28;20037;-62
2022/11/27 12:08:49;;;;;;;11.50;3.63;;;9.00;99.90;;;;;;10331820;28;20498;-61
2022/11/27 12:14:15;;;;;;;10.43;3.92;;;9.00;99.90;;;;;;10323618;28;20053;-69
2022/11/27 12:19:34;;;;;;;7.05;3.28;;;9.30;99.90;;;;;;10331275;28;20475;-61
2022/11/27 12:25:08;;;;;;;11.75;4.07;;;9.00;99.90;;;;;;10336064;28;20033;-60
2022/11/27 12:30:20;;;;;;;15.80;4.00;;;9.00;99.90;;;;;;10295066;28;20029;-62
2022/11/27 12:35:39;;;;;;;7.53;4.00;;;9.00;99.90;;;;;;10309426;28;20029;-62
2022/11/27 12:41:04;;;;;;;7.47;3.47;;;9.10;99.90;;;;;;10313931;28;20380;-62
2022/11/27 12:46:11;;;;;;;8.40;3.72;;;9.10;99.90;;;;;;10309711;28;20053;-61
2022/11/27 12:51:26;;;;;;;7.68;3.60;;;9.10;99.90;;;;;;10318284;28;20606;-61
2022/11/27 12:56:44;;;;;;;6.85;3.45;;;9.00;99.90;;;;;;10313701;28;20025;-62
2022/11/27 13:01:52;;;;;;;6.60;3.43;;;9.00;99.90;;;;;;10308698;28;20479;-62
2022/11/27 13:07:14;;;;;;;8.80;3.70;;;9.00;99.90;;;;;;10315595;28;20033;-62
2022/11/27 13:12:33;;;;;;;12.63;4.15;;;9.00;99.90;;;;;;10284132;28;20611;-61
2022/11/27 13:17:42;;;;;;;8.60;3.50;;;9.00;99.90;;;;;;10308597;28;20433;-61
2022/11/27 13:22:44;;;;;;;9.20;3.78;;;9.00;99.90;;;;;;10336355;28;20037;-60
2022/11/27 13:27:48;;;;;;;7.18;3.75;;;8.70;99.90;;;;;;10339652;28;20029;-62
2022/11/27 13:33:05;;;;;;;6.32;3.25;;;8.50;99.90;;;;;;10335290;28;20207;-61
2022/11/27 13:38:11;;;;;;;9.57;3.83;;;9.00;99.90;;;;;;10319515;28;20034;-61
2022/11/27 13:43:28;;;;;;;4.85;3.08;;;9.00;99.90;;;;;;10323429;28;20506;-61
2022/11/27 13:48:33;;;;;;;7.80;3.78;;;9.00;99.90;;;;;;10322790;28;20028;-61
2022/11/27 13:53:37;;;;;;;5.78;3.08;;;9.10;99.90;;;;;;10320187;28;20490;-60
2022/11/27 13:58:40;;;;;;;6.43;3.75;;;9.00;99.90;;;;;;10321395;28;20021;-65
2022/11/27 14:03:40;;;;;;;9.40;3.60;;;9.00;99.90;;;;;;10316171;28;20110;-61
2022/11/27 14:08:49;;;;;;;7.85;3.30;;;9.00;99.90;;;;;;10317253;28;20462;-61
2022/11/27 14:13:50;;;;;;;;;;;9.00;99.90;;;;;;10326336;28;20324;-60
2022/11/27 14:18:53;;;;;;;9.32;3.50;;;9.00;99.90;;;;;;10329070;28;20410;-61
2022/11/27 14:23:54;;;;;;;6.95;3.10;;;9.00;99.90;;;;;;10327537;28;20037;-60
2022/11/27 14:28:55;;;;;;;6.97;3.28;;;9.00;99.90;;;;;;10330819;28;20552;-60
2022/11/27 14:33:57;;;;;;;6.95;3.25;;;9.00;99.90;;;;;;10337424;28;20565;-61
2022/11/27 14:38:58;;;;;;;5.28;2.90;;;9.00;99.90;;;;;;10336326;28;20028;-62
2022/11/27 14:44:12;;;;;;;5.65;3.33;;;9.00;99.90;;;;;;10331422;28;20426;-60
2022/11/27 14:49:18;;;;;;;7.93;3.25;;;9.00;99.90;;;;;;10402820;22;20675;-61
2022/11/27 14:54:30;;;;;;;7.88;3.33;;;9.00;99.90;;;;;;10372195;28;20117;-60
2022/11/27 14:59:31;;;;;;;6.93;2.75;;;9.00;99.90;;;;;;10383399;28;20052;-60
2022/11/27 15:04:37;;;;;;;6.45;2.95;;;9.00;99.90;;;;;;10389436;28;20057;-60
2022/11/27 15:09:46;;;;;;;6.93;3.33;;;9.00;99.90;;;;;;10391530;28;20055;-61
2022/11/27 15:15:07;;;;;;;8.55;3.83;;;9.00;99.90;;;;;;10378444;28;20628;-60
2022/11/27 15:20:43;;;;;;;6.47;3.13;;;9.00;99.90;;;;;;10388533;28;20029;-61
2022/11/27 15:25:47;;;;;;;6.45;2.78;;;9.00;99.90;;;;;;10374813;28;20608;-61
2022/11/27 15:30:49;;;;;;;5.88;3.30;;;9.00;99.90;;;;;;10399174;28;20029;-61
2022/11/27 15:35:49;;;;;;;5.53;2.78;;;9.00;99.90;;;;;;10371362;28;20106;-62
2022/11/27 15:40:59;;;;;;;6.35;3.05;;;9.00;99.90;;;;;;10345516;28;20074;-61
2022/11/27 15:46:04;;;;;;;6.18;3.53;;;9.00;99.90;;;;;;10378986;28;20166;-60
2022/11/27 15:51:05;;;;;;;6.05;3.30;;;9.00;99.90;;;;;;10375777;28;20281;-61
2022/11/27 15:56:06;;;;;;;5.60;3.08;;;9.00;99.90;;;;;;10443782;28;20020;-62
2022/11/27 16:01:07;;;;;;;8.98;3.17;;;9.00;99.90;;;;;;10465672;28;20036;-61
2022/11/27 16:06:08;;;;;;;6.60;2.85;;;9.00;99.90;;;;;;10466968;28;20033;-67
2022/11/27 16:11:13;;;;;;;8.13;3.03;;;9.00;99.90;;;;;;10467856;28;20428;-64
2022/11/27 16:16:14;;;;;;;5.57;2.95;;;9.10;99.90;;;;;;10450915;28;20028;-61
2022/11/27 16:21:16;;;;;;;5.25;3.03;;;9.00;99.90;;;;;;10464336;28;20040;-61
2022/11/27 16:26:17;;;;;;;5.90;3.03;;;9.00;99.90;;;;;;10464793;28;20041;-61
2022/11/27 16:31:18;;;;;;;7.47;3.45;;;9.00;99.90;;;;;;10462159;28;20373;-61
2022/11/27 16:36:19;;;;;;;6.30;3.22;;;9.00;99.90;;;;;;10440889;28;20095;-61
2022/11/27 16:41:22;;;;;;;4.82;2.60;;;9.00;99.90;;;;;;10449735;28;20022;-62
2022/11/27 16:46:28;;;;;;;5.50;3.28;;;9.00;99.90;;;;;;10445050;28;20037;-61
2022/11/27 16:51:32;;;;;;;8.02;3.55;;;9.00;99.90;;;;;;10430407;28;20115;-61
2022/11/27 16:56:37;;;;;;;6.65;3.50;;;8.90;99.90;;;;;;10431986;28;20050;-60
2022/11/27 17:01:39;;;;;;;7.53;3.40;;;8.90;99.90;;;;;;10433655;28;20425;-61
2022/11/27 17:06:40;;;;;;;6.93;3.67;;;8.90;99.90;;;;;;10455207;28;20403;-62
2022/11/27 17:11:44;;;;;;;5.78;3.28;;;8.90;99.90;;;;;;10460216;28;20458;-62
2022/11/27 17:16:44;;;;;;;6.35;3.72;;;8.90;99.90;;;;;;10449151;28;20065;-61
2022/11/27 17:21:45;;;;;;;7.82;3.65;;;8.90;99.90;;;;;;10461696;28;20100;-62
2022/11/27 17:26:47;;;;;;;6.70;3.33;;;9.00;99.90;;;;;;10465562;28;20419;-61
2022/11/27 17:31:48;;;;;;;6.95;3.25;;;8.90;99.90;;;;;;10444254;28;20481;-61
2022/11/27 17:36:52;;;;;;;8.48;4.10;;;9.00;99.90;;;;;;10461057;28;20036;-61
2022/11/27 17:41:53;;;;;;;6.53;3.55;;;9.00;99.90;;;;;;10460356;28;20029;-61
2022/11/27 17:46:53;;;;;;;8.07;3.60;;;9.00;99.90;;;;;;10430309;28;20045;-61
2022/11/27 17:51:54;;;;;;;6.55;3.17;;;9.00;99.90;;;;;;10434122;28;20024;-65
2022/11/27 17:56:55;;;;;;;7.80;3.63;;;9.00;99.90;;;;;;10435628;28;20029;-62
2022/11/27 18:01:56;;;;;;;5.35;3.10;;;9.00;99.90;;;;;;10426943;28;20013;-61
2022/11/27 18:06:57;;;;;;;6.68;3.33;;;9.00;99.90;;;;;;10445058;28;20082;-64
2022/11/27 18:11:58;;;;;;;8.20;3.00;;;9.00;99.90;;;;;;10464937;28;20029;-61
2022/11/27 18:17:03;;;;;;;6.43;3.30;;;9.00;99.90;;;;;;10463389;28;20032;-61
2022/11/27 18:22:04;;;;;;;8.25;3.80;;;9.00;99.90;;;;;;10460338;28;20738;-61
2022/11/27 18:27:04;;;;;;;6.05;3.33;;;9.00;99.90;;;;;;10458830;28;20056;-61
2022/11/27 18:32:05;;;;;;;6.85;3.33;;;9.00;99.90;;;;;;10439918;28;20020;-61
2022/11/27 18:37:06;;;;;;;7.65;3.83;;;9.00;99.90;;;;;;10443772;28;20033;-61
2022/11/27 18:42:07;;;;;;;9.23;3.95;;;9.00;99.90;;;;;;10446706;28;20025;-61
2022/11/27 18:47:08;;;;;;;5.10;3.10;;;9.00;99.90;;;;;;10443084;28;20148;-61
2022/11/27 18:52:10;;;;;;;7.30;3.60;;;9.00;99.90;;;;;;10441359;28;20025;-61
2022/11/27 18:57:11;;;;;;;7.55;3.58;;;9.10;99.90;;;;;;10445923;28;20104;-61
2022/11/27 19:02:12;;;;;;;7.25;3.45;;;9.20;99.90;;;;;;10444667;28;20043;-61
2022/11/27 19:07:12;;;;;;;6.60;3.20;;;9.00;99.90;;;;;;10442116;28;20044;-61
2022/11/27 19:12:13;;;;;;;6.22;3.63;;;9.00;99.90;;;;;;10437735;28;20029;-61
2022/11/27 19:17:14;;;;;;;7.22;2.85;;;9.10;99.90;;;;;;10440166;28;20021;-62
2022/11/27 19:22:15;;;;;;;6.72;3.53;;;9.00;99.90;;;;;;10441436;28;20032;-61
2022/11/27 19:27:16;;;;;;;4.60;2.80;;;9.00;99.90;;;;;;10454404;28;20130;-61
2022/11/27 19:32:17;;;;;;;5.45;3.15;;;9.10;99.90;;;;;;10452388;28;20033;-61
2022/11/27 19:37:17;;;;;;;6.38;3.33;;;9.00;99.90;;;;;;10445987;28;20033;-61
2022/11/27 19:42:18;;;;;;;5.53;3.28;;;9.00;99.90;;;;;;10448711;28;20021;-63
2022/11/27 19:47:19;;;;;;;5.53;2.72;;;9.00;99.90;;;;;;10453509;28;20048;-61
2022/11/27 19:52:19;;;;;;;6.90;3.40;;;9.00;99.90;;;;;;10453743;28;20036;-61
2022/11/27 19:57:20;;;;;;;6.25;3.60;;;9.00;99.90;;;;;;10461799;28;20043;-61
2022/11/27 20:02:21;;;;;;;6.38;3.40;;;9.00;99.90;;;;;;10450204;28;20042;-61
2022/11/27 20:07:22;;;;;;;6.88;3.22;;;9.00;99.90;;;;;;10441846;28;20060;-61
2022/11/27 20:12:22;;;;;;;6.55;3.08;;;9.00;99.90;;;;;;10442924;28;20032;-63
2022/11/27 20:17:23;;;;;;;7.15;3.08;;;9.00;99.90;;;;;;10445980;28;20497;-61
2022/11/27 20:22:24;;;;;;;5.60;3.42;;;9.00;99.90;;;;;;10422986;28;20032;-61
2022/11/27 20:27:26;;;;;;;6.50;3.28;;;9.00;99.90;;;;;;10445268;28;20033;-62
2022/11/27 20:32:27;;;;;;;5.57;3.40;;;9.00;99.90;;;;;;10448223;28;20028;-61
2022/11/27 20:37:27;;;;;;;8.57;3.67;;;9.00;99.90;;;;;;10449619;28;20017;-62
2022/11/27 20:42:28;;;;;;;7.03;3.17;;;9.00;99.90;;;;;;10450629;28;20021;-61
2022/11/27 20:47:29;;;;;;;5.35;3.28;;;9.00;99.90;;;;;;10452360;28;20061;-61
2022/11/27 20:52:30;;;;;;;7.15;4.05;;;9.00;99.90;;;;;;10446647;28;20123;-61
2022/11/27 20:57:31;;;;;;;6.00;3.63;;;9.00;99.90;;;;;;10443855;28;20037;-62
2022/11/27 21:02:32;;;;;;;6.55;3.47;;;9.00;99.90;;;;;;10440712;28;20029;-70
2022/11/27 21:07:37;;;;;;;5.35;3.38;;;9.00;99.90;;;;;;10437685;28;20039;-61
2022/11/27 21:12:38;;;;;;;5.78;3.08;;;9.00;99.90;;;;;;10449175;28;21132;-69
2022/11/27 21:17:39;;;;;;;6.13;3.60;;;9.00;99.90;;;;;;10447806;28;20037;-61
2022/11/27 21:22:42;;;;;;;6.57;3.78;;;9.00;99.90;;;;;;10444495;28;20032;-62
2022/11/27 21:27:43;;;;;;;6.10;3.53;;;9.00;99.90;;;;;;10442413;28;20032;-61
2022/11/27 21:32:44;;;;;;;7.93;3.33;;;9.00;99.90;;;;;;10442633;28;20017;-61
2022/11/27 21:37:44;;;;;;;8.07;3.75;;;9.10;99.90;;;;;;10439726;28;20083;-67
2022/11/27 21:42:45;;;;;;;5.43;3.33;;;9.00;99.90;;;;;;10445246;28;20366;-63
2022/11/27 21:47:46;;;;;;;6.65;3.28;;;9.00;99.90;;;;;;10456740;28;20063;-61
2022/11/27 21:52:47;;;;;;;6.32;3.95;;;9.00;99.90;;;;;;10461885;28;20025;-61
2022/11/27 21:57:47;;;;;;;6.18;3.40;;;9.00;99.90;;;;;;10459802;28;20115;-64
2022/11/27 22:02:48;;;;;;;7.28;3.80;;;9.00;99.90;;;;;;10467952;28;20045;-62
2022/11/27 22:07:49;;;;;;;8.15;3.92;;;8.80;99.90;;;;;;10462177;28;20034;-62
2022/11/27 22:12:50;;;;;;;5.60;3.10;;;9.00;99.90;;;;;;10465188;28;20013;-61
2022/11/27 22:17:51;;;;;;;6.43;3.40;;;9.00;99.90;;;;;;10465620;28;20033;-63
2022/11/27 22:22:51;;;;;;;6.15;3.47;;;9.00;99.90;;;;;;10450513;28;20036;-61
2022/11/27 22:27:52;;;;;;;6.32;3.47;;;9.00;99.90;;;;;;10453276;28;20037;-61
2022/11/27 22:32:54;;;;;;;6.20;3.72;;;8.90;99.90;;;;;;10443609;28;20024;-61
2022/11/27 22:37:55;;;;;;;6.07;3.50;;;9.00;99.90;;;;;;10454014;28;20021;-61
2022/11/27 22:42:56;;;;;;;5.40;3.45;;;9.00;99.90;;;;;;10451475;28;20405;-61
2022/11/27 22:47:56;;;;;;;5.47;3.30;;;9.00;99.90;;;;;;10468430;28;20045;-61
2022/11/27 22:52:57;;;;;;;8.77;3.28;;;9.00;99.90;;;;;;10463161;28;20041;-61
2022/11/27 22:57:58;;;;;;;7.10;3.60;;;8.90;99.90;;;;;;10464135;28;20021;-61
2022/11/27 23:02:58;;;;;;;7.07;3.92;;;9.00;99.90;;;;;;10458066;28;20094;-61
2022/11/27 23:07:59;;;;;;;8.52;4.50;;;9.00;99.90;;;;;;10467795;28;20124;-61
2022/11/27 23:13:00;;;;;;;5.53;3.55;;;9.00;99.90;;;;;;10460416;28;20021;-61
2022/11/27 23:18:00;;;;;;;7.18;3.78;;;9.00;99.90;;;;;;10459831;28;20033;-61
2022/11/27 23:23:01;;;;;;;5.22;3.33;;;9.00;99.90;;;;;;10470529;28;20052;-61
2022/11/27 23:28:02;;;;;;;5.22;3.20;;;9.00;99.90;;;;;;10462442;28;20287;-61
2022/11/27 23:33:03;;;;;;;6.18;3.63;;;9.00;99.90;;;;;;10471101;28;20465;-61
2022/11/27 23:38:04;;;;;;;7.03;3.60;;;9.00;99.90;;;;;;10474021;28;20029;-66
2022/11/27 23:43:05;;;;;;;7.75;3.65;;;9.10;99.90;;;;;;10470904;28;20045;-61
2022/11/27 23:48:05;;;;;;;6.88;4.00;;;9.00;99.90;;;;;;10474538;28;20041;-62
2022/11/27 23:53:06;;;;;;;6.75;3.78;;;9.00;99.90;;;;;;10454324;28;20052;-61
2022/11/27 23:58:07;;;;;;;9.18;4.18;;;8.90;99.90;;;;;;10459422;28;20033;-61
